CheckWX is a tool to help pilots better visualize weather data.  It is not intended as a substitute for an official pre-flight weather briefing.

04:24:07 UTC

CYXX TAF
Abbotsford Airport
Abbotsford, Canada
TAF CYXX 232338Z 2400/2424 24012KT P6SM SCT040 BKN080 TEMPO 2400/2404 SCT080 FM240400 22006KT P6SM SCT040 FM241000 VRB03KT P6SM SCT012 TEMPO 2410/2416 BKN012 FM241800 22007KT P6SM SCT040 RMK NXT FCST BY 240600Z

Apr-24@
00:00 UTC

Apr-24 @ 00:00 UTC

Apr-24@
04:00 UTC

Apr-24 @ 04:00 UTC

TAF CYXX 232338Z 2400/2424 24012KT P6SM SCT040 BKN080

Expired

Wind
  • 240° at 12 KTS
Cloud Levels
  • Scattered at 4,000' AGL
  • Broken at 8,000' AGL

Apr-24@
00:00 UTC

Apr-24 @ 00:00 UTC

Apr-24@
04:00 UTC

Apr-24 @ 04:00 UTC

TEMPO 2400/2404 SCT080

Expired

Cloud Levels
  • Scattered at 8,000' AGL

Apr-24@
04:00 UTC

Apr-24 @ 04:00 UTC

Apr-24@
10:00 UTC

Apr-24 @ 10:00 UTC

FM240400 22006KT P6SM SCT040

From

From Standard forecast or significant change

Wind
  • 220° at 6 KTS
Cloud Levels
  • Scattered at 4,000' AGL

Apr-24@
10:00 UTC

Apr-24 @ 10:00 UTC

Apr-24@
16:00 UTC

Apr-24 @ 16:00 UTC

TEMPO 2410/2416 BKN012

Temporary

Temporary Changes expected for less than half the time period

Cloud Levels
  • Broken at 1,200' AGL

Apr-24@
10:00 UTC

Apr-24 @ 10:00 UTC

Apr-24@
18:00 UTC

Apr-24 @ 18:00 UTC

FM241000 VRB03KT P6SM SCT012

From

From Standard forecast or significant change

Wind
  • Variable at 3 KTS
Cloud Levels
  • Scattered at 1,200' AGL

Apr-24@
18:00 UTC

Apr-24 @ 18:00 UTC

Apr-25@
00:00 UTC

Apr-25 @ 00:00 UTC

FM241800 22007KT P6SM SCT040 RMK NXT FCST BY 240600Z

From

From Standard forecast or significant change

Wind
  • 220° at 7 KTS
Cloud Levels
  • Scattered at 4,000' AGL